createdAt,value
2022-10-08T00:03:23.748Z,13.46
2022-10-08T00:23:23.731Z,13.45
2022-10-08T00:43:25.989Z,13.44
2022-10-08T01:03:23.694Z,13.42
2022-10-08T01:23:23.680Z,13.41
2022-10-08T01:43:23.656Z,13.39
2022-10-08T02:03:23.611Z,13.37
2022-10-08T02:23:23.616Z,13.36
2022-10-08T04:23:23.504Z,13.33
2022-10-08T06:03:23.363Z,13.27
2022-10-08T06:23:23.348Z,13.27
2022-10-08T06:43:23.324Z,13.26
2022-10-08T07:03:23.295Z,13.26
2022-10-08T07:23:23.006Z,13.26
2022-10-08T07:43:23.249Z,13.26
2022-10-08T08:03:23.250Z,13.26
2022-10-08T08:23:23.196Z,13.25
2022-10-08T08:43:23.177Z,13.25
2022-10-08T09:03:23.161Z,13.25
2022-10-08T09:23:23.122Z,13.25
2022-10-08T09:43:23.095Z,13.25
2022-10-08T10:03:23.059Z,13.25
2022-10-08T10:23:23.035Z,13.25
2022-10-08T10:43:22.996Z,13.25
2022-10-08T11:03:22.969Z,13.25
2022-10-08T11:23:22.944Z,13.26
2022-10-08T12:23:22.830Z,13.26
2022-10-08T14:03:22.670Z,13.35
2022-10-08T14:23:22.645Z,13.36
2022-10-08T14:43:26.882Z,13.36
2022-10-08T15:03:22.609Z,13.36
2022-10-08T15:23:22.549Z,13.38
2022-10-08T15:43:22.512Z,13.4
2022-10-08T16:03:22.511Z,13.43
2022-10-08T16:23:22.187Z,13.44
2022-10-08T16:43:22.199Z,13.45
2022-10-08T17:03:22.400Z,13.46
2022-10-08T17:23:22.380Z,13.46
2022-10-08T17:43:22.366Z,13.47
2022-10-08T18:03:22.323Z,13.47
2022-10-08T18:23:22.042Z,13.48
2022-10-08T18:43:22.307Z,13.49
2022-10-08T19:03:22.284Z,13.5
2022-10-08T20:03:22.248Z,13.5
2022-10-08T20:43:22.231Z,13.49
2022-10-08T21:43:22.182Z,13.47
2022-10-08T22:23:22.159Z,13.46
2022-10-08T23:23:22.118Z,13.42
2022-10-08T23:43:22.123Z,13.39
